sensor_id;sensor_type;location;lat;lon;timestamp;pressure;altitude;pressure_sealevel;temperature;humidity
24788;BME280;12883;52.662;5.196;2022-12-24T00:01:29;100309.47;;;10.89;100.00
24788;BME280;12883;52.662;5.196;2022-12-24T00:03:54;100322.94;;;10.88;100.00
24788;BME280;12883;52.662;5.196;2022-12-24T00:06:22;100322.50;;;10.91;100.00
24788;BME280;12883;52.662;5.196;2022-12-24T00:08:48;100258.88;;;10.47;100.00
24788;BME280;12883;52.662;5.196;2022-12-24T00:11:15;100326.78;;;10.92;100.00
24788;BME280;12883;52.662;5.196;2022-12-24T00:13:40;100336.41;;;10.93;100.00
24788;BME280;12883;52.662;5.196;2022-12-24T00:16:06;100317.28;;;10.78;100.00
24788;BME280;12883;52.662;5.196;2022-12-24T00:18:31;100344.13;;;10.94;100.00
24788;BME280;12883;52.662;5.196;2022-12-24T00:20:56;100354.34;;;10.91;100.00
24788;BME280;12883;52.662;5.196;2022-12-24T00:23:22;100349.50;;;10.88;100.00
24788;BME280;12883;52.662;5.196;2022-12-24T00:25:47;100348.41;;;10.95;100.00
24788;BME280;12883;52.662;5.196;2022-12-24T00:28:13;100346.78;;;10.94;100.00
24788;BME280;12883;52.662;5.196;2022-12-24T00:30:40;100347.47;;;10.83;100.00
24788;BME280;12883;52.662;5.196;2022-12-24T00:33:06;100360.69;;;10.90;100.00
24788;BME280;12883;52.662;5.196;2022-12-24T00:35:35;100367.88;;;10.83;100.00
24788;BME280;12883;52.662;5.196;2022-12-24T00:38:01;100368.31;;;10.80;100.00
24788;BME280;12883;52.662;5.196;2022-12-24T00:40:28;100377.25;;;10.85;100.00
24788;BME280;12883;52.662;5.196;2022-12-24T00:42:53;100371.59;;;10.75;100.00
24788;BME280;12883;52.662;5.196;2022-12-24T00:45:19;100384.00;;;10.88;100.00
24788;BME280;12883;52.662;5.196;2022-12-24T00:47:44;100380.75;;;10.86;100.00
24788;BME280;12883;52.662;5.196;2022-12-24T00:50:09;100402.19;;;10.84;100.00
24788;BME280;12883;52.662;5.196;2022-12-24T00:52:35;100377.06;;;10.87;100.00
24788;BME280;12883;52.662;5.196;2022-12-24T00:55:00;100373.63;;;10.80;100.00
24788;BME280;12883;52.662;5.196;2022-12-24T00:57:27;100386.66;;;10.81;100.00
24788;BME280;12883;52.662;5.196;2022-12-24T00:59:53;100384.25;;;10.80;100.00
24788;BME280;12883;52.662;5.196;2022-12-24T01:02:18;100360.66;;;10.59;100.00
24788;BME280;12883;52.662;5.196;2022-12-24T01:04:43;100365.72;;;10.60;100.00
24788;BME280;12883;52.662;5.196;2022-12-24T01:07:27;100353.78;;;10.45;100.00
24788;BME280;12883;52.662;5.196;2022-12-24T01:09:53;100414.03;;;10.82;100.00
24788;BME280;12883;52.662;5.196;2022-12-24T01:12:18;100412.81;;;10.78;100.00
24788;BME280;12883;52.662;5.196;2022-12-24T01:14:43;100406.31;;;10.74;100.00
24788;BME280;12883;52.662;5.196;2022-12-24T01:17:09;100443.84;;;10.77;100.00
24788;BME280;12883;52.662;5.196;2022-12-24T01:19:34;100423.59;;;10.89;100.00
24788;BME280;12883;52.662;5.196;2022-12-24T01:22:00;100408.56;;;10.70;100.00
24788;BME280;12883;52.662;5.196;2022-12-24T01:24:25;100438.13;;;10.80;100.00
24788;BME280;12883;52.662;5.196;2022-12-24T01:26:51;100457.31;;;10.82;100.00
24788;BME280;12883;52.662;5.196;2022-12-24T01:29:16;100458.56;;;10.80;100.00
24788;BME280;12883;52.662;5.196;2022-12-24T01:31:41;100455.66;;;10.88;100.00
24788;BME280;12883;52.662;5.196;2022-12-24T01:34:07;100469.72;;;10.88;100.00
24788;BME280;12883;52.662;5.196;2022-12-24T01:36:32;100475.88;;;10.89;100.00
24788;BME280;12883;52.662;5.196;2022-12-24T01:38:58;100479.75;;;10.93;100.00
24788;BME280;12883;52.662;5.196;2022-12-24T01:41:23;100483.63;;;10.84;100.00
24788;BME280;12883;52.662;5.196;2022-12-24T01:44:26;100485.09;;;10.80;100.00
24788;BME280;12883;52.662;5.196;2022-12-24T01:47:01;100495.72;;;10.80;100.00
24788;BME280;12883;52.662;5.196;2022-12-24T01:49:27;100503.03;;;10.78;100.00
24788;BME280;12883;52.662;5.196;2022-12-24T01:52:06;100492.66;;;10.76;100.00
24788;BME280;12883;52.662;5.196;2022-12-24T01:54:43;100465.56;;;10.61;100.00
24788;BME280;12883;52.662;5.196;2022-12-24T01:57:16;100504.88;;;10.84;100.00
24788;BME280;12883;52.662;5.196;2022-12-24T01:59:46;100502.41;;;10.89;100.00
24788;BME280;12883;52.662;5.196;2022-12-24T02:02:14;100515.91;;;10.81;100.00
24788;BME280;12883;52.662;5.196;2022-12-24T02:04:45;100518.16;;;10.77;100.00
24788;BME280;12883;52.662;5.196;2022-12-24T02:07:11;100525.91;;;10.85;100.00
24788;BME280;12883;52.662;5.196;2022-12-24T02:09:38;100522.84;;;10.82;100.00
24788;BME280;12883;52.662;5.196;2022-12-24T02:12:04;100525.69;;;10.87;100.00
24788;BME280;12883;52.662;5.196;2022-12-24T02:14:31;100523.03;;;10.80;100.00
24788;BME280;12883;52.662;5.196;2022-12-24T02:17:25;100536.72;;;10.90;100.00
24788;BME280;12883;52.662;5.196;2022-12-24T02:20:09;100554.06;;;10.86;100.00
24788;BME280;12883;52.662;5.196;2022-12-24T02:25:45;100542.66;;;10.86;100.00
24788;BME280;12883;52.662;5.196;2022-12-24T02:31:26;100545.13;;;10.68;100.00
24788;BME280;12883;52.662;5.196;2022-12-24T02:34:03;100547.97;;;10.66;100.00
24788;BME280;12883;52.662;5.196;2022-12-24T02:36:35;100545.97;;;10.55;100.00
24788;BME280;12883;52.662;5.196;2022-12-24T02:39:07;100561.25;;;10.60;100.00
24788;BME280;12883;52.662;5.196;2022-12-24T02:41:38;100562.28;;;10.59;100.00
24788;BME280;12883;52.662;5.196;2022-12-24T02:44:25;100524.53;;;10.24;100.00
24788;BME280;12883;52.662;5.196;2022-12-24T02:46:52;100451.63;;;9.36;100.00
24788;BME280;12883;52.662;5.196;2022-12-24T02:49:18;100590.44;;;10.53;100.00
24788;BME280;12883;52.662;5.196;2022-12-24T02:51:43;100588.81;;;10.52;100.00
24788;BME280;12883;52.662;5.196;2022-12-24T02:54:09;100592.88;;;10.42;100.00
24788;BME280;12883;52.662;5.196;2022-12-24T03:02:21;100606.34;;;10.27;100.00
24788;BME280;12883;52.662;5.196;2022-12-24T03:05:17;100607.56;;;10.31;100.00
24788;BME280;12883;52.662;5.196;2022-12-24T03:10:54;100612.03;;;10.18;100.00
24788;BME280;12883;52.662;5.196;2022-12-24T03:13:22;100625.91;;;10.20;100.00
24788;BME280;12883;52.662;5.196;2022-12-24T03:15:49;100599.78;;;10.04;100.00
24788;BME280;12883;52.662;5.196;2022-12-24T03:18:22;100620.78;;;10.12;100.00
24788;BME280;12883;52.662;5.196;2022-12-24T03:21:05;100615.69;;;10.04;100.00
24788;BME280;12883;52.662;5.196;2022-12-24T03:23:33;100626.22;;;9.91;100.00
24788;BME280;12883;52.662;5.196;2022-12-24T03:26:00;100629.69;;;9.98;100.00
24788;BME280;12883;52.662;5.196;2022-12-24T03:28:29;100627.31;;;10.03;100.00
24788;BME280;12883;52.662;5.196;2022-12-24T03:30:55;100625.63;;;10.02;100.00
24788;BME280;12883;52.662;5.196;2022-12-24T03:33:20;100629.56;;;10.06;100.00
24788;BME280;12883;52.662;5.196;2022-12-24T03:35:46;100594.38;;;9.78;100.00
24788;BME280;12883;52.662;5.196;2022-12-24T03:38:11;100630.78;;;10.10;100.00
24788;BME280;12883;52.662;5.196;2022-12-24T03:40:37;100593.97;;;9.81;100.00
24788;BME280;12883;52.662;5.196;2022-12-24T03:43:02;100632.00;;;10.07;100.00
24788;BME280;12883;52.662;5.196;2022-12-24T03:45:27;100633.22;;;10.05;100.00
24788;BME280;12883;52.662;5.196;2022-12-24T03:47:53;100646.03;;;10.01;100.00
24788;BME280;12883;52.662;5.196;2022-12-24T03:50:18;100636.06;;;10.03;100.00
24788;BME280;12883;52.662;5.196;2022-12-24T03:52:44;100635.56;;;9.87;100.00
24788;BME280;12883;52.662;5.196;2022-12-24T03:55:09;100642.53;;;10.01;100.00
24788;BME280;12883;52.662;5.196;2022-12-24T03:57:35;100640.91;;;10.00;100.00
24788;BME280;12883;52.662;5.196;2022-12-24T04:00:00;100645.78;;;9.96;100.00
24788;BME280;12883;52.662;5.196;2022-12-24T04:02:25;100645.41;;;9.99;100.00
24788;BME280;12883;52.662;5.196;2022-12-24T04:04:51;100649.47;;;9.95;100.00
24788;BME280;12883;52.662;5.196;2022-12-24T04:07:16;100642.81;;;10.06;100.00
24788;BME280;12883;52.662;5.196;2022-12-24T04:09:41;100637.25;;;9.94;100.00
24788;BME280;12883;52.662;5.196;2022-12-24T04:12:07;100639.28;;;9.99;100.00
24788;BME280;12883;52.662;5.196;2022-12-24T04:14:32;100638.53;;;10.05;100.00
24788;BME280;12883;52.662;5.196;2022-12-24T04:16:57;100641.78;;;10.07;100.00
24788;BME280;12883;52.662;5.196;2022-12-24T04:19:23;100620.47;;;9.81;100.00
24788;BME280;12883;52.662;5.196;2022-12-24T04:21:48;100649.06;;;9.98;100.00
24788;BME280;12883;52.662;5.196;2022-12-24T04:24:14;100646.91;;;10.08;100.00
24788;BME280;12883;52.662;5.196;2022-12-24T04:26:39;100640.56;;;10.09;100.00
24788;BME280;12883;52.662;5.196;2022-12-24T04:29:04;100645.78;;;9.90;100.00
24788;BME280;12883;52.662;5.196;2022-12-24T04:31:30;100653.16;;;10.01;100.00
24788;BME280;12883;52.662;5.196;2022-12-24T04:33:55;100666.41;;;10.01;100.00
24788;BME280;12883;52.662;5.196;2022-12-24T04:36:20;100680.84;;;9.92;100.00
24788;BME280;12883;52.662;5.196;2022-12-24T04:38:47;100674.31;;;9.88;100.00
24788;BME280;12883;52.662;5.196;2022-12-24T04:41:16;100681.63;;;9.86;100.00
24788;BME280;12883;52.662;5.196;2022-12-24T04:43:42;100681.03;;;9.84;100.00
24788;BME280;12883;52.662;5.196;2022-12-24T04:46:13;100669.97;;;9.74;100.00
24788;BME280;12883;52.662;5.196;2022-12-24T04:48:39;100671.44;;;9.83;100.00
24788;BME280;12883;52.662;5.196;2022-12-24T04:51:06;100674.72;;;9.85;100.00
24788;BME280;12883;52.662;5.196;2022-12-24T04:53:33;100673.25;;;9.76;100.00
24788;BME280;12883;52.662;5.196;2022-12-24T04:55:58;100673.00;;;9.71;100.00
24788;BME280;12883;52.662;5.196;2022-12-24T04:58:24;100672.72;;;9.53;100.00
24788;BME280;12883;52.662;5.196;2022-12-24T05:00:49;100693.75;;;9.61;100.00
24788;BME280;12883;52.662;5.196;2022-12-24T05:03:15;100689.31;;;9.68;100.00
24788;BME280;12883;52.662;5.196;2022-12-24T05:05:40;100697.63;;;9.58;100.00
24788;BME280;12883;52.662;5.196;2022-12-24T05:08:05;100683.94;;;9.55;100.00
24788;BME280;12883;52.662;5.196;2022-12-24T05:10:31;100669.06;;;9.54;100.00
24788;BME280;12883;52.662;5.196;2022-12-24T05:12:56;100680.09;;;9.57;100.00
24788;BME280;12883;52.662;5.196;2022-12-24T05:15:22;100699.50;;;9.71;100.00
24788;BME280;12883;52.662;5.196;2022-12-24T05:17:47;100698.72;;;9.77;100.00
24788;BME280;12883;52.662;5.196;2022-12-24T05:20:13;100690.34;;;9.73;100.00
24788;BME280;12883;52.662;5.196;2022-12-24T05:22:38;100693.38;;;9.70;100.00
24788;BME280;12883;52.662;5.196;2022-12-24T05:25:22;100692.59;;;9.70;100.00
24788;BME280;12883;52.662;5.196;2022-12-24T05:28:06;100689.75;;;9.71;100.00
24788;BME280;12883;52.662;5.196;2022-12-24T05:30:32;100691.00;;;9.82;100.00
24788;BME280;12883;52.662;5.196;2022-12-24T05:32:57;100697.53;;;9.86;100.00
24788;BME280;12883;52.662;5.196;2022-12-24T05:35:22;100694.09;;;9.92;100.00
24788;BME280;12883;52.662;5.196;2022-12-24T05:37:48;100697.78;;;9.91;100.00
24788;BME280;12883;52.662;5.196;2022-12-24T05:40:13;100700.25;;;9.99;100.00
24788;BME280;12883;52.662;5.196;2022-12-24T05:42:38;100698.63;;;9.98;100.00
24788;BME280;12883;52.662;5.196;2022-12-24T05:45:04;100700.00;;;9.94;100.00
24788;BME280;12883;52.662;5.196;2022-12-24T05:47:30;100702.06;;;9.92;100.00
24788;BME280;12883;52.662;5.196;2022-12-24T05:49:55;100703.91;;;9.98;100.00
24788;BME280;12883;52.662;5.196;2022-12-24T05:52:20;100696.56;;;9.93;100.00
24788;BME280;12883;52.662;5.196;2022-12-24T05:54:46;100695.81;;;10.06;100.00
24788;BME280;12883;52.662;5.196;2022-12-24T05:57:11;100693.59;;;10.09;100.00
24788;BME280;12883;52.662;5.196;2022-12-24T05:59:37;100703.41;;;10.15;100.00
24788;BME280;12883;52.662;5.196;2022-12-24T06:02:02;100694.00;;;10.13;100.00
24788;BME280;12883;52.662;5.196;2022-12-24T06:04:28;100699.50;;;10.11;100.00
24788;BME280;12883;52.662;5.196;2022-12-24T06:06:53;100708.94;;;10.27;100.00
24788;BME280;12883;52.662;5.196;2022-12-24T06:09:18;100712.84;;;10.31;100.00
24788;BME280;12883;52.662;5.196;2022-12-24T06:11:44;100714.66;;;10.24;100.00
24788;BME280;12883;52.662;5.196;2022-12-24T06:14:09;100711.59;;;10.27;100.00
24788;BME280;12883;52.662;5.196;2022-12-24T06:16:35;100708.38;;;10.38;100.00
24788;BME280;12883;52.662;5.196;2022-12-24T06:19:00;100712.88;;;10.44;100.00
24788;BME280;12883;52.662;5.196;2022-12-24T06:21:25;100715.72;;;10.42;100.00
24788;BME280;12883;52.662;5.196;2022-12-24T06:23:51;100724.47;;;10.43;100.00
24788;BME280;12883;52.662;5.196;2022-12-24T06:26:19;100728.38;;;10.40;100.00
24788;BME280;12883;52.662;5.196;2022-12-24T06:28:46;100725.91;;;10.39;100.00
24788;BME280;12883;52.662;5.196;2022-12-24T06:31:14;100728.34;;;10.34;100.00
24788;BME280;12883;52.662;5.196;2022-12-24T06:33:40;100734.47;;;10.34;100.00
24788;BME280;12883;52.662;5.196;2022-12-24T06:36:07;100730.38;;;10.32;100.00
24788;BME280;12883;52.662;5.196;2022-12-24T06:38:32;100736.13;;;10.42;100.00
24788;BME280;12883;52.662;5.196;2022-12-24T06:40:58;100745.13;;;10.47;100.00
24788;BME280;12883;52.662;5.196;2022-12-24T06:43:23;100740.25;;;10.51;100.00
24788;BME280;12883;52.662;5.196;2022-12-24T06:45:49;100727.97;;;10.37;100.00
24788;BME280;12883;52.662;5.196;2022-12-24T06:48:15;100752.25;;;10.47;100.00
24788;BME280;12883;52.662;5.196;2022-12-24T06:50:41;100760.03;;;10.55;100.00
24788;BME280;12883;52.662;5.196;2022-12-24T06:53:07;100757.00;;;10.64;100.00
24788;BME280;12883;52.662;5.196;2022-12-24T06:55:32;100744.53;;;10.52;100.00
24788;BME280;12883;52.662;5.196;2022-12-24T06:57:58;100756.59;;;10.61;100.00
24788;BME280;12883;52.662;5.196;2022-12-24T07:00:23;100760.69;;;10.70;100.00
24788;BME280;12883;52.662;5.196;2022-12-24T07:02:49;100747.59;;;10.62;100.00
24788;BME280;12883;52.662;5.196;2022-12-24T07:05:14;100768.22;;;10.66;100.00
24788;BME280;12883;52.662;5.196;2022-12-24T07:07:41;100764.75;;;10.72;100.00
24788;BME280;12883;52.662;5.196;2022-12-24T07:10:10;100765.38;;;10.68;100.00
24788;BME280;12883;52.662;5.196;2022-12-24T07:12:35;100764.34;;;10.62;100.00
24788;BME280;12883;52.662;5.196;2022-12-24T07:15:01;100758.63;;;10.65;100.00
24788;BME280;12883;52.662;5.196;2022-12-24T07:17:26;100773.09;;;10.63;100.00
24788;BME280;12883;52.662;5.196;2022-12-24T07:19:52;100776.59;;;10.70;100.00
24788;BME280;12883;52.662;5.196;2022-12-24T07:22:17;100777.41;;;10.64;100.00
24788;BME280;12883;52.662;5.196;2022-12-24T07:24:42;100783.16;;;10.74;100.00
24788;BME280;12883;52.662;5.196;2022-12-24T07:27:08;100791.34;;;10.79;100.00
24788;BME280;12883;52.662;5.196;2022-12-24T07:29:33;100791.72;;;10.69;100.00
24788;BME280;12883;52.662;5.196;2022-12-24T07:31:59;100797.81;;;10.70;100.00
24788;BME280;12883;52.662;5.196;2022-12-24T07:34:25;100805.59;;;10.71;100.00
24788;BME280;12883;52.662;5.196;2022-12-24T07:36:50;100760.22;;;10.47;100.00
24788;BME280;12883;52.662;5.196;2022-12-24T07:39:15;100808.84;;;10.73;100.00
24788;BME280;12883;52.662;5.196;2022-12-24T07:41:41;100811.75;;;10.78;100.00
24788;BME280;12883;52.662;5.196;2022-12-24T07:44:11;100805.53;;;10.52;100.00
24788;BME280;12883;52.662;5.196;2022-12-24T07:46:36;100826.41;;;10.74;100.00
24788;BME280;12883;52.662;5.196;2022-12-24T07:49:02;100829.28;;;10.73;100.00
24788;BME280;12883;52.662;5.196;2022-12-24T07:51:27;100834.78;;;10.71;100.00
24788;BME280;12883;52.662;5.196;2022-12-24T07:53:52;100833.16;;;10.70;100.00
24788;BME280;12883;52.662;5.196;2022-12-24T07:56:17;100842.75;;;10.71;100.00
24788;BME280;12883;52.662;5.196;2022-12-24T07:58:43;100838.44;;;10.64;100.00
24788;BME280;12883;52.662;5.196;2022-12-24T08:01:10;100850.44;;;10.53;100.00
24788;BME280;12883;52.662;5.196;2022-12-24T08:03:36;100850.47;;;10.60;100.00
24788;BME280;12883;52.662;5.196;2022-12-24T08:06:01;100863.50;;;10.55;100.00
24788;BME280;12883;52.662;5.196;2022-12-24T08:08:26;100845.34;;;10.52;100.00
24788;BME280;12883;52.662;5.196;2022-12-24T08:10:52;100854.53;;;10.56;100.00
24788;BME280;12883;52.662;5.196;2022-12-24T08:13:17;100861.69;;;10.62;100.00
24788;BME280;12883;52.662;5.196;2022-12-24T08:15:43;100870.50;;;10.62;100.00
24788;BME280;12883;52.662;5.196;2022-12-24T08:18:10;100869.28;;;10.65;100.00
24788;BME280;12883;52.662;5.196;2022-12-24T08:20:37;100897.88;;;10.76;100.00
24788;BME280;12883;52.662;5.196;2022-12-24T08:23:03;100880.75;;;10.72;100.00
24788;BME280;12883;52.662;5.196;2022-12-24T08:25:29;100895.00;;;10.71;100.00
24788;BME280;12883;52.662;5.196;2022-12-24T08:27:55;100871.94;;;10.65;100.00
24788;BME280;12883;52.662;5.196;2022-12-24T08:30:21;100894.63;;;10.74;100.00
24788;BME280;12883;52.662;5.196;2022-12-24T08:32:46;100901.91;;;10.59;100.00
24788;BME280;12883;52.662;5.196;2022-12-24T08:35:11;100894.53;;;10.54;100.00
24788;BME280;12883;52.662;5.196;2022-12-24T08:37:37;100895.09;;;10.50;100.00
24788;BME280;12883;52.662;5.196;2022-12-24T08:40:03;100911.50;;;10.60;100.00
24788;BME280;12883;52.662;5.196;2022-12-24T08:42:28;100919.03;;;10.56;100.00
24788;BME280;12883;52.662;5.196;2022-12-24T08:44:53;100923.50;;;10.56;100.00
24788;BME280;12883;52.662;5.196;2022-12-24T08:47:19;100926.41;;;10.61;100.00
24788;BME280;12883;52.662;5.196;2022-12-24T08:49:44;100927.41;;;10.60;100.00
24788;BME280;12883;52.662;5.196;2022-12-24T08:52:09;100919.47;;;10.60;100.00
24788;BME280;12883;52.662;5.196;2022-12-24T08:54:35;100927.00;;;10.63;100.00
24788;BME280;12883;52.662;5.196;2022-12-24T08:57:00;100931.72;;;10.61;100.00
24788;BME280;12883;52.662;5.196;2022-12-24T08:59:26;100936.78;;;10.56;100.00
24788;BME280;12883;52.662;5.196;2022-12-24T09:01:51;100932.56;;;10.68;100.00
24788;BME280;12883;52.662;5.196;2022-12-24T09:04:16;100944.81;;;10.69;100.00
24788;BME280;12883;52.662;5.196;2022-12-24T09:06:42;100952.16;;;10.67;100.00
24788;BME280;12883;52.662;5.196;2022-12-24T09:09:07;100940.16;;;10.77;100.00
24788;BME280;12883;52.662;5.196;2022-12-24T09:11:33;100950.16;;;10.75;100.00
24788;BME280;12883;52.662;5.196;2022-12-24T09:14:00;100951.44;;;10.86;100.00
24788;BME280;12883;52.662;5.196;2022-12-24T09:16:26;100924.34;;;10.56;100.00
24788;BME280;12883;52.662;5.196;2022-12-24T09:18:51;100960.22;;;10.86;100.00
24788;BME280;12883;52.662;5.196;2022-12-24T09:21:17;100956.16;;;10.90;100.00
24788;BME280;12883;52.662;5.196;2022-12-24T09:23:45;100960.41;;;10.85;100.00
24788;BME280;12883;52.662;5.196;2022-12-24T09:26:19;100964.50;;;10.87;100.00
24788;BME280;12883;52.662;5.196;2022-12-24T09:28:46;100970.88;;;10.93;100.00
24788;BME280;12883;52.662;5.196;2022-12-24T09:31:12;100966.53;;;10.85;100.00
24788;BME280;12883;52.662;5.196;2022-12-24T09:33:39;100972.88;;;10.91;100.00
24788;BME280;12883;52.662;5.196;2022-12-24T09:36:06;100974.38;;;11.00;100.00
24788;BME280;12883;52.662;5.196;2022-12-24T09:38:32;100985.31;;;10.84;100.00
24788;BME280;12883;52.662;5.196;2022-12-24T09:40:58;100984.72;;;10.88;100.00
24788;BME280;12883;52.662;5.196;2022-12-24T09:43:30;100991.09;;;10.94;100.00
24788;BME280;12883;52.662;5.196;2022-12-24T09:46:09;100990.44;;;10.92;100.00
24788;BME280;12883;52.662;5.196;2022-12-24T09:48:41;100993.94;;;10.92;100.00
24788;BME280;12883;52.662;5.196;2022-12-24T09:51:10;100963.97;;;10.64;100.00
24788;BME280;12883;52.662;5.196;2022-12-24T09:56:08;101011.94;;;10.97;100.00
24788;BME280;12883;52.662;5.196;2022-12-24T09:58:40;101009.84;;;10.86;100.00
24788;BME280;12883;52.662;5.196;2022-12-24T10:01:19;101011.53;;;11.00;100.00
24788;BME280;12883;52.662;5.196;2022-12-24T10:03:45;101018.06;;;10.97;100.00
24788;BME280;12883;52.662;5.196;2022-12-24T10:06:14;101025.19;;;10.97;100.00
24788;BME280;12883;52.662;5.196;2022-12-24T10:09:02;101025.81;;;10.99;100.00
24788;BME280;12883;52.662;5.196;2022-12-24T10:11:42;101032.56;;;10.95;100.00
24788;BME280;12883;52.662;5.196;2022-12-24T10:14:33;101027.25;;;11.01;100.00
24788;BME280;12883;52.662;5.196;2022-12-24T10:17:35;101023.81;;;11.01;100.00
24788;BME280;12883;52.662;5.196;2022-12-24T10:25:43;101032.38;;;10.96;100.00
24788;BME280;12883;52.662;5.196;2022-12-24T10:28:15;101041.72;;;10.92;100.00
24788;BME280;12883;52.662;5.196;2022-12-24T10:30:41;101001.59;;;10.74;100.00
24788;BME280;12883;52.662;5.196;2022-12-24T10:33:19;101034.81;;;10.98;100.00
24788;BME280;12883;52.662;5.196;2022-12-24T10:35:51;100972.53;;;10.60;100.00
24788;BME280;12883;52.662;5.196;2022-12-24T10:38:18;101027.84;;;10.97;100.00
24788;BME280;12883;52.662;5.196;2022-12-24T10:40:46;101011.94;;;10.97;100.00
24788;BME280;12883;52.662;5.196;2022-12-24T10:43:21;101026.03;;;10.97;100.00
24788;BME280;12883;52.662;5.196;2022-12-24T10:45:53;101043.34;;;10.93;100.00
24788;BME280;12883;52.662;5.196;2022-12-24T10:48:44;101033.56;;;10.94;100.00
24788;BME280;12883;52.662;5.196;2022-12-24T10:51:40;101028.72;;;11.04;100.00
24788;BME280;12883;52.662;5.196;2022-12-24T10:54:13;101027.06;;;11.03;100.00
24788;BME280;12883;52.662;5.196;2022-12-24T10:56:46;101035.22;;;11.01;100.00
24788;BME280;12883;52.662;5.196;2022-12-24T11:01:59;101047.53;;;11.09;100.00
24788;BME280;12883;52.662;5.196;2022-12-24T11:04:27;101016.44;;;11.03;100.00
24788;BME280;12883;52.662;5.196;2022-12-24T11:06:57;101050.44;;;11.14;100.00
24788;BME280;12883;52.662;5.196;2022-12-24T11:09:34;101052.91;;;11.22;100.00
24788;BME280;12883;52.662;5.196;2022-12-24T11:12:03;101062.75;;;11.28;100.00
24788;BME280;12883;52.662;5.196;2022-12-24T11:14:36;101049.25;;;11.23;100.00
24788;BME280;12883;52.662;5.196;2022-12-24T11:17:03;101061.75;;;11.29;100.00
24788;BME280;12883;52.662;5.196;2022-12-24T11:19:30;101073.22;;;11.42;100.00
24788;BME280;12883;52.662;5.196;2022-12-24T11:22:05;101079.91;;;11.32;100.00
24788;BME280;12883;52.662;5.196;2022-12-24T11:24:33;101072.59;;;11.34;100.00
24788;BME280;12883;52.662;5.196;2022-12-24T11:27:22;101068.38;;;11.12;100.00
24788;BME280;12883;52.662;5.196;2022-12-24T11:29:49;101076.22;;;11.26;100.00
24788;BME280;12883;52.662;5.196;2022-12-24T11:32:18;101094.84;;;11.33;100.00
24788;BME280;12883;52.662;5.196;2022-12-24T11:34:44;101102.38;;;11.29;100.00
24788;BME280;12883;52.662;5.196;2022-12-24T11:39:54;101085.56;;;11.16;100.00
24788;BME280;12883;52.662;5.196;2022-12-24T11:42:31;101104.84;;;11.31;100.00
24788;BME280;12883;52.662;5.196;2022-12-24T11:44:58;101103.63;;;11.27;100.00
24788;BME280;12883;52.662;5.196;2022-12-24T11:47:36;101087.97;;;11.11;100.00
24788;BME280;12883;52.662;5.196;2022-12-24T11:50:35;101106.13;;;11.35;100.00
24788;BME280;12883;52.662;5.196;2022-12-24T11:53:10;101100.75;;;11.28;100.00
24788;BME280;12883;52.662;5.196;2022-12-24T11:55:44;101098.53;;;11.32;100.00
24788;BME280;12883;52.662;5.196;2022-12-24T12:01:29;101082.81;;;11.30;100.00
24788;BME280;12883;52.662;5.196;2022-12-24T12:04:10;101065.50;;;11.07;100.00
24788;BME280;12883;52.662;5.196;2022-12-24T12:06:42;101096.50;;;11.34;100.00
24788;BME280;12883;52.662;5.196;2022-12-24T12:09:17;101101.19;;;11.32;100.00
24788;BME280;12883;52.662;5.196;2022-12-24T12:11:47;101093.88;;;11.47;100.00
24788;BME280;12883;52.662;5.196;2022-12-24T12:14:37;101103.22;;;11.30;100.00
24788;BME280;12883;52.662;5.196;2022-12-24T12:17:17;101113.84;;;11.30;100.00
24788;BME280;12883;52.662;5.196;2022-12-24T12:22:29;101121.03;;;11.36;100.00
24788;BME280;12883;52.662;5.196;2022-12-24T12:24:58;101125.69;;;11.27;100.00
24788;BME280;12883;52.662;5.196;2022-12-24T12:27:32;101126.09;;;11.24;100.00
24788;BME280;12883;52.662;5.196;2022-12-24T12:30:03;101062.09;;;10.85;100.00
24788;BME280;12883;52.662;5.196;2022-12-24T12:35:16;101143.69;;;11.32;100.00
24788;BME280;12883;52.662;5.196;2022-12-24T12:37:49;101142.44;;;11.28;100.00
24788;BME280;12883;52.662;5.196;2022-12-24T12:40:17;101147.34;;;11.24;100.00
24788;BME280;12883;52.662;5.196;2022-12-24T12:42:52;101155.09;;;11.26;100.00
24788;BME280;12883;52.662;5.196;2022-12-24T12:45:43;101162.44;;;11.24;100.00
24788;BME280;12883;52.662;5.196;2022-12-24T12:51:12;101166.53;;;11.20;100.00
24788;BME280;12883;52.662;5.196;2022-12-24T12:56:32;101164.31;;;11.30;100.00
24788;BME280;12883;52.662;5.196;2022-12-24T13:15:35;101169.81;;;11.28;100.00
24788;BME280;12883;52.662;5.196;2022-12-24T13:18:17;101146.38;;;11.04;100.00
24788;BME280;12883;52.662;5.196;2022-12-24T13:20:48;101187.97;;;11.25;100.00
24788;BME280;12883;52.662;5.196;2022-12-24T13:23:18;101179.69;;;11.07;100.00
24788;BME280;12883;52.662;5.196;2022-12-24T13:25:47;101169.19;;;10.99;100.00
24788;BME280;12883;52.662;5.196;2022-12-24T13:30:46;101202.19;;;11.11;100.00
24788;BME280;12883;52.662;5.196;2022-12-24T13:33:44;101206.00;;;11.02;100.00
24788;BME280;12883;52.662;5.196;2022-12-24T13:36:01;101199.50;;;11.04;100.00
24788;BME280;12883;52.662;5.196;2022-12-24T13:40:53;101203.50;;;10.94;100.00
24788;BME280;12883;52.662;5.196;2022-12-24T13:43:18;101209.94;;;10.85;100.00
24788;BME280;12883;52.662;5.196;2022-12-24T13:45:49;101207.72;;;10.88;100.00
24788;BME280;12883;52.662;5.196;2022-12-24T13:50:48;101225.97;;;10.98;100.00
24788;BME280;12883;52.662;5.196;2022-12-24T13:58:44;101229.09;;;10.80;100.00
24788;BME280;12883;52.662;5.196;2022-12-24T14:01:20;101233.34;;;10.75;100.00